Time;durP1;ratioP1;P1;durP2;ratioP2;P2;SDS_P1;SDS_P2;PMS_P1;PMS_P2;Temp;Humidity;BMP_temperature;BMP_pressure;BME280_temperature;BME280_humidity;BME280_pressure;Samples;Min_cycle;Max_cycle;Signal;HPM_P1;HPM_P2
2020/12/02 00:03:00;;;;;;;164.70;77.60;;;;;;;-1.79;73.20;100997.09;2130706;81;28603;-67
2020/12/02 00:06:04;;;;;;;164.80;75.75;;;;;;;-1.78;73.04;100993.61;2183323;80;27723;-65
2020/12/02 00:09:16;;;;;;;165.00;74.27;;;;;;;-1.76;73.04;100993.65;2218539;80;28871;-64
2020/12/02 00:12:18;;;;;;;161.20;72.50;;;;;;;-1.74;72.78;100997.18;2136644;80;31049;-65
2020/12/02 00:15:20;;;;;;;168.37;73.75;;;;;;;-1.76;72.63;100995.83;2112546;82;34039;-67
2020/12/02 00:18:22;;;;;;;152.93;70.75;;;;;;;-1.77;72.60;100990.56;2036119;84;28659;-66
2020/12/02 00:21:28;;;;;;;152.50;70.05;;;;;;;-1.77;72.49;101000.63;2131862;81;27616;-65
2020/12/02 00:24:33;;;;;;;173.32;76.07;;;;;;;-1.79;72.34;101004.11;2095268;82;28907;-65
2020/12/02 00:27:34;;;;;;;177.10;76.72;;;;;;;-1.82;72.40;101002.34;2098888;84;31149;-66
2020/12/02 00:30:36;;;;;;;183.45;79.35;;;;;;;-1.86;72.67;101012.34;2062555;82;33020;-65
2020/12/02 00:33:39;;;;;;;173.47;74.90;;;;;;;-1.92;72.75;101018.41;2079958;82;28867;-65
2020/12/02 00:36:42;;;;;;;179.25;78.62;;;;;;;-1.96;72.83;101023.16;2134364;81;27689;-67
2020/12/02 00:39:44;;;;;;;160.78;71.85;;;;;;;-1.97;72.99;101023.11;2107735;82;29519;-64
2020/12/02 00:42:46;;;;;;;171.50;75.22;;;;;;;-2.02;73.04;101021.33;2106382;83;31142;-66
2020/12/02 00:45:49;;;;;;;157.03;69.67;;;;;;;-2.03;73.12;101022.19;2117175;83;32415;-67
2020/12/02 00:48:52;;;;;;;162.60;71.50;;;;;;;-2.02;73.11;101025.69;2134370;81;28641;-65
2020/12/02 00:51:56;;;;;;;149.97;65.78;;;;;;;-2.07;73.15;101028.25;2061787;83;27793;-68
2020/12/02 00:54:58;;;;;;;149.05;69.00;;;;;;;-2.07;73.20;101029.56;2085161;83;28823;-66
2020/12/02 00:58:03;;;;;;;152.57;68.25;;;;;;;-2.08;73.24;101030.42;2049656;83;31931;-67
2020/12/02 01:01:10;;;;;;;159.70;71.20;;;;;;;-2.09;73.33;101031.28;2152522;81;33149;-64
2020/12/02 01:04:18;;;;;;;155.30;65.42;;;;;;;-2.10;73.35;101030.83;2072957;84;28928;-63
2020/12/02 01:07:21;;;;;;;141.10;65.20;;;;;;;-2.09;73.24;101029.97;2128920;81;27611;-66
2020/12/02 01:10:26;;;;;;;134.00;65.08;;;;;;;-2.09;73.25;101023.41;2081925;84;28072;-65
2020/12/02 01:13:30;;;;;;;;;;;;;;;-2.08;73.29;101017.30;2080336;84;31177;-65
2020/12/02 01:16:40;;;;;;;137.00;64.95;;;;;;;-2.07;73.31;101019.06;2136985;80;32158;-63
2020/12/02 01:19:42;;;;;;;152.45;71.25;;;;;;;-2.07;73.17;101028.25;2116603;82;28835;-63
2020/12/02 01:22:45;;;;;;;136.77;63.58;;;;;;;-2.07;73.20;101026.94;2113583;80;27673;-64
2020/12/02 01:25:48;;;;;;;152.10;65.00;;;;;;;-2.08;72.98;101025.62;2165050;80;28559;-65
2020/12/02 01:28:50;;;;;;;141.10;64.87;;;;;;;-2.07;72.85;101025.62;2089921;82;30966;-64
2020/12/02 01:31:56;;;;;;;144.37;65.45;;;;;;;-2.06;72.76;101030.02;2147218;80;33122;-66
2020/12/02 01:34:58;;;;;;;144.82;64.80;;;;;;;-2.06;72.72;101033.05;2165227;80;28911;-63
2020/12/02 01:38:05;;;;;;;150.53;69.32;;;;;;;-2.07;72.79;101026.94;2208126;78;27651;-66
2020/12/02 01:41:11;;;;;;;152.65;68.47;;;;;;;-2.09;72.81;101025.16;2157332;80;29767;-67
2020/12/02 01:44:13;;;;;;;159.05;67.58;;;;;;;-2.11;72.79;101021.62;2171845;80;31153;-64
2020/12/02 01:47:38;;;;;;;145.12;66.12;;;;;;;-2.15;72.75;101018.95;2124850;80;34037;-66
2020/12/02 01:50:59;;;;;;;160.18;67.53;;;;;;;-2.16;72.79;101021.13;2179064;80;28855;-68
2020/12/02 01:54:28;;;;;;;156.80;67.30;;;;;;;-2.19;72.86;101029.39;2152245;80;27651;-65
2020/12/02 01:57:34;;;;;;;141.82;62.45;;;;;;;-2.20;72.90;101026.32;2200263;80;29158;-67
2020/12/02 02:00:37;;;;;;;159.67;67.00;;;;;;;-2.21;72.88;101024.55;2147011;81;32128;-65
2020/12/02 02:03:40;;;;;;;139.15;61.45;;;;;;;-2.22;72.85;101024.97;2124121;80;33074;-67
2020/12/02 02:07:15;;;;;;;146.93;66.77;;;;;;;-2.22;72.77;101024.97;2144742;79;28918;-65
2020/12/02 02:10:27;;;;;;;142.53;62.50;;;;;;;-2.22;72.65;101017.53;2205881;80;27718;-66
2020/12/02 02:14:03;;;;;;;152.07;65.67;;;;;;;-2.23;72.67;101015.77;2141713;81;29538;-65
2020/12/02 02:17:05;;;;;;;143.78;64.92;;;;;;;-2.24;72.49;101019.25;2190501;80;31931;-64
2020/12/02 02:20:09;;;;;;;144.35;62.85;;;;;;;-2.25;72.46;101019.70;2108609;81;33923;-65
2020/12/02 02:23:14;;;;;;;144.57;62.40;;;;;;;-2.28;72.52;101017.02;2148393;81;28936;-65
2020/12/02 02:26:24;;;;;;;137.60;60.23;;;;;;;-2.27;72.41;101013.95;2132962;80;27698;-67
2020/12/02 02:29:36;;;;;;;135.85;62.78;;;;;;;-2.30;72.35;101018.29;2175506;80;28886;-64
2020/12/02 02:32:38;;;;;;;132.32;57.27;;;;;;;-2.31;72.33;101011.72;2100657;84;31163;-67
2020/12/02 02:35:40;;;;;;;127.97;60.15;;;;;;;-2.35;72.41;101009.49;2083431;81;32909;-67
2020/12/02 02:38:43;;;;;;;127.02;59.10;;;;;;;-2.36;72.41;101014.70;2108377;82;28873;-66
2020/12/02 02:41:45;;;;;;;131.50;60.45;;;;;;;-2.39;72.55;101009.39;2110368;82;27537;-66
2020/12/02 02:44:47;;;;;;;129.55;57.90;;;;;;;-2.38;72.45;101001.98;2093140;84;28816;-65
2020/12/02 02:47:50;;;;;;;121.60;57.98;;;;;;;-2.38;72.55;101004.60;2063077;84;31234;-67
2020/12/02 02:50:52;;;;;;;133.15;58.65;;;;;;;-2.41;72.65;100994.95;2133573;82;33126;-66
2020/12/02 02:53:54;;;;;;;127.80;58.95;;;;;;;-2.39;72.60;100998.91;2116410;83;28856;-65
2020/12/02 02:56:56;;;;;;;130.30;55.48;;;;;;;-2.40;72.51;100990.16;2083001;82;27801;-67
2020/12/02 02:59:58;;;;;;;121.47;57.88;;;;;;;-2.42;72.47;100987.95;2066465;82;28584;-67
2020/12/02 03:03:01;;;;;;;128.78;59.70;;;;;;;-2.40;72.37;100989.30;2128492;82;31149;-66
2020/12/02 03:06:04;;;;;;;133.65;60.98;;;;;;;-2.40;72.63;100995.41;2095682;82;34351;-67
2020/12/02 03:09:11;;;;;;;127.30;56.40;;;;;;;-2.41;72.54;100992.33;2137575;82;29888;-67
2020/12/02 03:12:13;;;;;;;124.53;58.45;;;;;;;-2.42;72.48;100989.70;2074353;83;27694;-67
2020/12/02 03:15:15;;;;;;;144.00;62.85;;;;;;;-2.41;72.36;100991.02;2093849;80;29765;-66
2020/12/02 03:18:18;;;;;;;138.95;65.70;;;;;;;-2.42;72.38;100992.32;2139920;81;32390;-66
2020/12/02 03:21:21;;;;;;;151.45;70.17;;;;;;;-2.45;72.40;100994.04;2056204;85;33223;-66
2020/12/02 03:24:24;;;;;;;155.18;69.95;;;;;;;-2.45;72.55;100991.83;2124897;81;28864;-68
2020/12/02 03:27:27;;;;;;;141.73;64.40;;;;;;;-2.51;72.62;101000.94;2092836;81;27643;-66
2020/12/02 03:30:31;;;;;;;147.00;67.85;;;;;;;-2.51;72.64;100996.55;2110629;83;29751;-67
2020/12/02 03:33:33;;;;;;;147.60;65.30;;;;;;;-2.54;72.74;100999.13;2060397;82;31169;-67
2020/12/02 03:36:35;;;;;;;131.07;61.70;;;;;;;-2.55;72.71;101001.73;2165852;80;33150;-67
2020/12/02 03:39:37;;;;;;;129.60;61.48;;;;;;;-2.58;72.79;100998.66;2121064;81;28837;-67
2020/12/02 03:42:40;;;;;;;142.47;62.55;;;;;;;-2.58;72.89;101003.89;2123235;82;27742;-67
2020/12/02 03:45:44;;;;;;;187.32;90.85;;;;;;;-2.62;72.89;101004.25;2114883;81;29618;-67
2020/12/02 03:48:46;;;;;;;135.93;61.95;;;;;;;-2.64;72.93;101002.03;2164703;80;32104;-67
2020/12/02 03:51:48;;;;;;;131.90;61.53;;;;;;;-2.63;73.01;101009.05;2144357;81;33135;-67
2020/12/02 03:54:50;;;;;;;128.15;58.73;;;;;;;-2.61;72.94;101003.84;2128921;81;29799;-67
2020/12/02 03:57:52;;;;;;;128.97;59.33;;;;;;;-2.60;72.91;101004.30;2138679;80;27625;-67
2020/12/02 04:00:55;;;;;;;129.00;57.00;;;;;;;-2.59;72.75;101017.87;2150902;81;29654;-67
2020/12/02 04:03:57;;;;;;;140.80;65.90;;;;;;;-2.57;72.68;101017.88;2128634;81;32262;-66
2020/12/02 04:06:59;;;;;;;144.10;64.60;;;;;;;-2.59;72.75;101020.48;2157797;81;33107;-69
2020/12/02 04:10:01;;;;;;;123.78;59.45;;;;;;;-2.64;72.83;101012.97;2115570;82;29803;-67
2020/12/02 04:13:03;;;;;;;134.07;58.65;;;;;;;-2.68;72.86;101007.21;2128225;82;28234;-69
2020/12/02 04:16:06;;;;;;;130.65;59.20;;;;;;;-2.68;73.01;101001.97;2096575;81;28103;-70
2020/12/02 04:19:09;;;;;;;129.07;61.92;;;;;;;-2.70;73.09;101003.27;2140880;80;30951;-69
2020/12/02 04:22:11;;;;;;;135.37;61.40;;;;;;;-2.68;73.09;101000.66;2158160;79;34424;-69
2020/12/02 04:25:14;;;;;;;122.50;56.63;;;;;;;-2.65;72.92;101000.30;2151827;80;29166;-69
2020/12/02 04:28:16;;;;;;;130.20;58.15;;;;;;;-2.62;72.73;100995.52;2093540;81;27681;-69
2020/12/02 04:31:18;;;;;;;118.95;54.95;;;;;;;-2.62;72.66;100998.14;2158360;81;28800;-66
2020/12/02 04:34:20;;;;;;;134.82;58.70;;;;;;;-2.62;72.53;101000.77;2120636;80;31885;-69
2020/12/02 04:37:23;;;;;;;139.22;64.70;;;;;;;-2.63;72.54;101001.62;2122783;81;33159;-69
2020/12/02 04:40:35;;;;;;;132.82;60.63;;;;;;;-2.65;72.54;101005.55;2115626;80;29224;-67
2020/12/02 04:43:41;;;;;;;154.42;73.83;;;;;;;-2.66;72.35;101006.81;2126088;81;27663;-69
2020/12/02 04:46:44;;;;;;;143.15;64.40;;;;;;;-2.69;72.56;101005.44;2122705;81;29691;-68
2020/12/02 04:49:47;;;;;;;131.87;59.23;;;;;;;-2.71;72.54;101000.59;2113560;80;31119;-68
2020/12/02 04:53:14;;;;;;;148.17;63.48;;;;;;;-2.72;72.59;101003.66;2110340;81;33042;-68
2020/12/02 04:56:17;;;;;;;128.07;58.50;;;;;;;-2.74;72.62;101009.31;2193281;80;29188;-68
2020/12/02 04:59:19;;;;;;;136.57;62.55;;;;;;;-2.75;72.50;101008.44;2128662;80;27656;-68
2020/12/02 05:02:26;;;;;;;130.95;59.63;;;;;;;-2.75;72.65;101009.75;2144025;81;28813;-68
2020/12/02 05:05:28;;;;;;;122.98;55.88;;;;;;;-2.76;72.58;101004.05;2089554;81;31182;-68
2020/12/02 05:08:31;;;;;;;127.72;59.90;;;;;;;-2.74;72.68;101005.38;2140737;81;32265;-68
2020/12/02 05:11:33;;;;;;;128.18;55.20;;;;;;;-2.75;72.44;101013.69;2157273;81;29340;-68
2020/12/02 05:14:39;;;;;;;117.80;53.05;;;;;;;-2.74;72.56;101006.69;2144807;81;28178;-66
2020/12/02 05:17:44;;;;;;;120.70;53.58;;;;;;;-2.76;72.71;100998.81;2149874;80;28805;-66
2020/12/02 05:21:07;;;;;;;119.65;53.78;;;;;;;-2.78;72.75;101005.77;2149233;81;31943;-68
2020/12/02 05:24:17;;;;;;;127.78;56.40;;;;;;;-2.80;72.76;100995.67;2148840;81;32749;-69
2020/12/02 05:27:23;;;;;;;127.40;56.55;;;;;;;-2.81;72.75;100995.66;2149279;81;29169;-69
2020/12/02 05:30:34;;;;;;;121.75;53.87;;;;;;;-2.82;72.65;100997.38;2125563;81;27790;-70
2020/12/02 05:33:38;;;;;;;122.00;56.73;;;;;;;-2.82;72.80;100994.77;2125344;81;29563;-69
2020/12/02 05:36:51;;;;;;;113.62;54.40;;;;;;;-2.81;72.84;100997.84;2125644;81;31135;-63
2020/12/02 05:40:02;;;;;;;122.72;54.15;;;;;;;-2.79;72.95;100998.75;2148773;81;32891;-65
2020/12/02 05:43:22;;;;;;;125.85;54.70;;;;;;;-2.80;72.96;100993.46;2124763;81;29143;-64
2020/12/02 05:46:39;;;;;;;115.28;50.73;;;;;;;-2.81;72.93;100999.16;2178886;81;27599;-64
2020/12/02 05:49:58;;;;;;;114.28;51.95;;;;;;;-2.78;72.81;100999.20;2148219;81;28744;-64
2020/12/02 05:53:32;;;;;;;111.37;50.00;;;;;;;-2.78;72.85;101003.14;2149168;81;30948;-64
2020/12/02 05:56:34;;;;;;;113.52;50.67;;;;;;;-2.78;72.87;101007.08;2149255;81;33551;-67
2020/12/02 05:59:36;;;;;;;128.75;57.27;;;;;;;-2.78;72.78;101011.01;2149524;81;30103;-66
2020/12/02 06:02:39;;;;;;;125.20;52.30;;;;;;;-2.78;72.90;101013.63;2097870;81;27684;-66
2020/12/02 06:05:41;;;;;;;131.72;57.23;;;;;;;-2.77;72.73;101005.32;2101578;81;28879;-65
2020/12/02 06:08:50;;;;;;;117.50;53.55;;;;;;;-2.77;72.67;100999.66;2120512;81;31165;-63
2020/12/02 06:11:58;;;;;;;132.82;58.30;;;;;;;-2.78;72.72;101002.23;2149207;81;33122;-65
2020/12/02 06:15:08;;;;;;;129.85;59.70;;;;;;;-2.79;72.76;101002.69;2148079;81;28951;-66
2020/12/02 06:18:27;;;;;;;141.85;61.00;;;;;;;-2.81;72.90;101005.70;2145190;81;27668;-66
2020/12/02 06:21:39;;;;;;;155.07;61.15;;;;;;;-2.83;72.94;101010.48;2144515;81;28784;-65
2020/12/02 06:24:47;;;;;;;159.48;66.05;;;;;;;-2.84;73.05;101010.89;2178682;81;31139;-67
2020/12/02 06:27:59;;;;;;;150.37;63.13;;;;;;;-2.83;73.02;101007.86;2342823;76;36736;-67
2020/12/02 06:31:16;;;;;;;161.18;66.12;;;;;;;-2.86;73.11;101007.36;2241651;77;27586;-65
2020/12/02 06:34:25;;;;;;;136.90;59.18;;;;;;;-2.88;73.15;101009.52;2246917;77;28435;-68
2020/12/02 06:37:28;;;;;;;121.77;56.83;;;;;;;-2.87;73.21;101006.90;2221217;77;32104;-66
2020/12/02 06:40:30;;;;;;;128.25;57.00;;;;;;;-2.85;73.24;101010.88;2215377;77;33824;-68
2020/12/02 06:43:36;;;;;;;133.45;57.62;;;;;;;-2.84;73.24;101010.02;2215985;77;29266;-67
2020/12/02 06:47:00;;;;;;;132.80;56.95;;;;;;;-2.83;73.23;101011.80;2246506;77;27634;-66
2020/12/02 06:50:08;;;;;;;122.42;54.50;;;;;;;-2.81;73.30;101007.02;2306274;77;28866;-67
2020/12/02 06:53:21;;;;;;;137.32;59.45;;;;;;;-2.80;73.23;101014.44;2273618;77;32031;-67
2020/12/02 06:56:24;;;;;;;124.22;56.37;;;;;;;-2.75;73.26;101017.63;2274231;77;33120;-67
2020/12/02 06:59:26;;;;;;;134.57;57.62;;;;;;;-2.70;73.25;101004.98;2273800;77;29342;-67
2020/12/02 07:02:53;;;;;;;143.32;64.45;;;;;;;-2.69;73.18;101010.28;2215864;77;27657;-67
2020/12/02 07:06:17;;;;;;;122.75;57.38;;;;;;;-2.68;73.15;101015.08;2306376;77;28804;-67
2020/12/02 07:09:20;;;;;;;137.62;59.95;;;;;;;-2.70;73.17;101009.82;2273330;77;31125;-65
2020/12/02 07:12:28;;;;;;;133.80;60.20;;;;;;;-2.64;73.31;101012.97;2244767;77;33114;-66
2020/12/02 07:15:30;;;;;;;141.50;61.70;;;;;;;-2.64;73.15;101018.21;2247047;77;29281;-67
2020/12/02 07:18:33;;;;;;;137.60;56.65;;;;;;;-2.66;73.15;101012.95;2247360;77;27953;-66
2020/12/02 07:21:52;;;;;;;126.92;57.50;;;;;;;-2.64;73.32;101011.66;2247240;77;29772;-66
2020/12/02 07:25:07;;;;;;;131.10;56.95;;;;;;;-2.56;73.43;101005.22;2211636;77;30939;-65
2020/12/02 07:28:21;;;;;;;146.07;61.98;;;;;;;-2.50;73.34;101005.33;2248444;77;33539;-66
2020/12/02 07:31:25;;;;;;;143.43;61.60;;;;;;;-2.41;73.56;101017.26;2275408;77;28701;-66
2020/12/02 07:34:30;;;;;;;147.78;64.25;;;;;;;-2.41;73.56;101017.26;2275488;77;27688;-67
2020/12/02 07:37:33;;;;;;;136.28;62.08;;;;;;;-2.34;73.45;101010.36;2275296;77;28788;-67
2020/12/02 07:40:38;;;;;;;136.55;61.28;;;;;;;-2.23;73.55;101009.20;2217297;77;31611;-67
2020/12/02 07:43:45;;;;;;;142.80;61.90;;;;;;;-2.12;73.60;101009.36;2247660;77;33832;-66
2020/12/02 07:46:48;;;;;;;138.75;62.25;;;;;;;-1.99;73.55;101012.19;2275692;77;28210;-66
2020/12/02 07:50:29;;;;;;;140.80;65.60;;;;;;;-1.92;73.45;101012.25;2201630;77;27761;-65
2020/12/02 07:53:55;;;;;;;134.63;62.08;;;;;;;-1.84;73.37;101005.38;2159206;81;29679;-63
2020/12/02 07:56:57;;;;;;;150.00;66.87;;;;;;;-1.72;73.54;101002.89;2134296;83;32454;-64
2020/12/02 08:00:24;;;;;;;144.07;62.88;;;;;;;-1.62;73.31;100999.95;2103472;84;33110;-67
2020/12/02 08:03:37;;;;;;;147.45;64.10;;;;;;;-1.56;73.27;100997.36;2121556;83;28862;-62
2020/12/02 08:06:51;;;;;;;148.60;64.58;;;;;;;-1.51;73.22;100999.17;2067513;84;28315;-66
2020/12/02 08:09:55;;;;;;;148.90;66.65;;;;;;;-1.45;73.27;100997.94;2087862;84;29547;-63
2020/12/02 08:13:00;;;;;;;140.50;63.80;;;;;;;-1.45;73.06;101000.12;2069387;84;31570;-67
2020/12/02 08:16:03;;;;;;;142.77;62.67;;;;;;;-1.39;73.21;100992.73;2118487;81;34051;-66
2020/12/02 08:19:08;;;;;;;144.35;65.83;;;;;;;-1.37;73.07;100993.63;2167186;81;28639;-65
2020/12/02 08:22:38;;;;;;;157.75;67.82;;;;;;;-1.36;73.13;100998.03;2168280;81;27739;-67
2020/12/02 08:25:49;;;;;;;151.65;68.52;;;;;;;-1.31;73.12;100995.44;2177970;81;28804;-66
2020/12/02 08:28:52;;;;;;;146.18;68.87;;;;;;;-1.29;73.04;100997.23;2165782;81;31136;-65
2020/12/02 08:32:27;;;;;;;144.77;68.07;;;;;;;-1.30;72.96;100995.89;2142612;81;32053;-65
2020/12/02 08:35:43;;;;;;;162.85;70.95;;;;;;;-1.28;73.32;100998.11;2167776;81;29911;-68
2020/12/02 08:38:51;;;;;;;175.57;75.40;;;;;;;-1.18;73.35;100998.67;2167244;81;27615;-68
2020/12/02 08:41:54;;;;;;;188.18;80.55;;;;;;;-1.16;73.47;101002.61;2167314;81;28907;-69
2020/12/02 08:45:07;;;;;;;160.70;68.85;;;;;;;-1.11;73.42;101007.05;2166904;81;31107;-69
2020/12/02 08:48:10;;;;;;;158.27;72.10;;;;;;;-1.05;73.53;100997.02;2194564;81;33108;-63
2020/12/02 08:51:17;;;;;;;183.27;78.02;;;;;;;-1.03;73.32;100995.28;2189635;81;28969;-64
2020/12/02 08:54:22;;;;;;;153.60;69.97;;;;;;;-1.01;73.29;100996.64;2152030;81;27643;-65
2020/12/02 08:57:24;;;;;;;118.35;52.48;;;;;;;-1.00;73.37;100995.77;2134356;81;30204;-65
2020/12/02 09:00:26;;;;;;;172.55;79.27;;;;;;;-0.97;73.34;100994.45;2157383;81;32048;-67
2020/12/02 09:03:28;;;;;;;168.97;75.40;;;;;;;-0.92;73.59;100985.77;2132896;81;32895;-67
2020/12/02 09:06:31;;;;;;;171.82;78.15;;;;;;;-0.84;73.54;100992.41;2128517;81;28852;-66
2020/12/02 09:09:33;;;;;;;162.27;75.37;;;;;;;-0.76;73.55;100985.89;2157590;81;27681;-69
2020/12/02 09:12:35;;;;;;;170.75;79.17;;;;;;;-0.73;73.39;100986.34;2157266;81;28648;-69
2020/12/02 09:15:38;;;;;;;171.77;76.62;;;;;;;-0.64;73.60;100987.30;2128488;81;32082;-68
2020/12/02 09:18:40;;;;;;;168.87;74.90;;;;;;;-0.65;73.30;100980.27;2157308;81;34085;-66
2020/12/02 09:21:44;;;;;;;151.35;69.05;;;;;;;-0.63;73.20;100981.17;2128586;81;29801;-67
2020/12/02 09:24:48;;;;;;;153.82;71.70;;;;;;;-0.61;73.21;100969.32;2109780;81;28207;-68
2020/12/02 09:27:50;;;;;;;169.00;81.78;;;;;;;-0.56;73.18;100962.35;2157274;81;29755;-67
2020/12/02 09:30:53;;;;;;;167.72;75.75;;;;;;;-0.56;73.16;100961.03;2128364;81;31158;-68
2020/12/02 09:33:56;;;;;;;153.47;67.22;;;;;;;-0.51;73.27;100961.06;2157213;81;33129;-68
2020/12/02 09:36:59;;;;;;;158.70;74.72;;;;;;;-0.48;73.14;100958.00;2156795;81;28370;-64
2020/12/02 09:40:05;;;;;;;164.80;71.02;;;;;;;-0.43;73.20;100947.53;2157404;81;27723;-69
2020/12/02 09:43:24;;;;;;;158.72;67.22;;;;;;;-0.39;73.27;100943.16;2151428;81;29347;-69
2020/12/02 09:46:30;;;;;;;128.42;57.73;;;;;;;-0.35;72.89;100939.67;2151920;81;31909;-67
2020/12/02 09:49:33;;;;;;;142.50;68.22;;;;;;;-0.34;72.91;100938.81;2157304;81;34035;-67
2020/12/02 09:52:46;;;;;;;152.82;67.60;;;;;;;-0.33;72.97;100934.85;2160653;81;28932;-68
2020/12/02 09:55:49;;;;;;;128.27;61.20;;;;;;;-0.28;72.94;100926.97;2165686;81;27602;-68
2020/12/02 09:58:55;;;;;;;137.32;63.52;;;;;;;-0.30;72.75;100918.18;2112533;81;28813;-67
2020/12/02 10:02:12;;;;;;;144.22;65.28;;;;;;;-0.26;72.93;100916.02;2191672;81;31122;-69
2020/12/02 10:05:38;;;;;;;131.78;63.50;;;;;;;-0.22;72.92;100909.90;2190496;81;34005;-67
2020/12/02 10:08:58;;;;;;;133.95;63.60;;;;;;;-0.19;72.76;100904.66;2158272;81;28705;-67
2020/12/02 10:12:27;;;;;;;141.30;64.67;;;;;;;-0.16;72.76;100901.14;2191895;81;27719;-65
2020/12/02 10:16:21;;;;;;;125.47;57.33;;;;;;;-0.15;72.71;100895.00;2161702;81;29546;-67
2020/12/02 10:19:48;;;;;;;137.15;61.53;;;;;;;-0.10;72.78;100894.59;2186768;81;31125;-67
2020/12/02 10:23:22;;;;;;;112.10;53.40;;;;;;;-0.06;72.75;100891.53;2186588;81;33130;-69
2020/12/02 10:26:36;;;;;;;111.22;54.33;;;;;;;-0.03;72.62;100895.50;2161535;81;29792;-68
2020/12/02 10:30:01;;;;;;;104.65;47.23;;;;;;;-0.03;72.51;100894.18;2197390;80;27849;-68
2020/12/02 10:33:14;;;;;;;117.25;54.93;;;;;;;-0.05;72.40;100894.61;2164511;81;28788;-70
2020/12/02 10:36:19;;;;;;;115.17;54.67;;;;;;;-0.07;72.59;100891.08;2221348;80;32114;-67
2020/12/02 10:39:27;;;;;;;126.35;58.63;;;;;;;-0.05;72.74;100897.23;2168722;80;33135;-67
2020/12/02 10:43:02;;;;;;;134.90;59.93;;;;;;;0.03;72.79;100886.73;2345530;74;27691;-65
2020/12/02 10:46:07;;;;;;;114.80;54.20;;;;;;;-0.06;72.69;100881.86;2244883;77;27706;-68
2020/12/02 10:49:18;;;;;;;117.62;56.83;;;;;;;-0.05;72.64;100878.35;2276252;77;29291;-67
2020/12/02 10:52:20;;;;;;;129.35;62.20;;;;;;;-0.04;72.71;100880.56;2301095;76;30903;-67
2020/12/02 10:55:28;;;;;;;139.43;63.45;;;;;;;-0.03;72.68;100873.11;2276175;77;32253;-65
2020/12/02 10:58:31;;;;;;;123.15;55.70;;;;;;;0.02;72.86;100868.71;2304324;77;28538;-67
2020/12/02 11:01:34;;;;;;;129.03;59.60;;;;;;;0.07;72.54;100868.30;2249034;77;27616;-66
2020/12/02 11:04:36;;;;;;;105.70;50.35;;;;;;;0.11;72.66;100866.12;2304305;77;28801;-68
2020/12/02 11:07:53;;;;;;;120.17;55.00;;;;;;;0.18;72.54;100869.64;2249505;77;31840;-68
2020/12/02 11:11:23;;;;;;;120.02;55.88;;;;;;;0.21;72.50;100859.54;2301181;77;34117;-66
2020/12/02 11:14:54;;;;;;;121.97;53.28;;;;;;;0.25;72.52;100858.68;2273443;77;28845;-65
2020/12/02 11:18:27;;;;;;;117.15;55.73;;;;;;;0.29;72.50;100856.05;2304371;77;27716;-64
2020/12/02 11:21:53;;;;;;;112.57;50.92;;;;;;;0.36;72.64;100846.39;2273302;77;28630;-64
2020/12/02 11:25:20;;;;;;;126.87;57.20;;;;;;;0.43;72.52;100845.53;2216912;79;31956;-65
2020/12/02 11:28:22;;;;;;;116.05;58.02;;;;;;;0.49;72.42;100835.42;2166440;81;34002;-64
2020/12/02 11:32:05;;;;;;;116.08;53.73;;;;;;;0.55;72.39;100829.27;2195527;81;28533;-65
2020/12/02 11:35:48;;;;;;;105.47;50.05;;;;;;;0.58;72.21;100820.91;2165472;81;27706;-64
2020/12/02 11:38:59;;;;;;;102.55;49.93;;;;;;;0.64;72.05;100808.62;2170250;81;29538;-63
2020/12/02 11:42:24;;;;;;;111.40;51.02;;;;;;;0.68;71.70;100809.92;2190468;80;31690;-62
2020/12/02 11:45:37;;;;;;;122.58;57.00;;;;;;;0.70;71.83;100809.95;2190561;81;33350;-64
2020/12/02 11:49:15;;;;;;;111.93;52.47;;;;;;;0.78;71.67;100807.30;2252381;77;28150;-63
2020/12/02 11:52:57;;;;;;;74.65;38.73;;;;;;;0.74;71.50;100813.89;2187127;80;27661;-61
2020/12/02 11:56:01;;;;;;;100.33;49.10;;;;;;;0.77;71.15;100809.50;2217611;80;29892;-64
2020/12/02 11:59:21;;;;;;;110.88;54.20;;;;;;;0.73;70.95;100800.72;2156025;80;30898;-65
2020/12/02 12:02:38;;;;;;;103.05;51.55;;;;;;;0.73;71.25;100800.27;2184964;80;33444;-64
2020/12/02 12:05:48;;;;;;;155.22;71.20;;;;;;;0.74;71.08;100793.25;2217385;80;28536;-65
2020/12/02 12:09:08;;;;;;;106.32;49.75;;;;;;;0.77;71.29;100789.27;2185678;80;27823;-64
2020/12/02 12:12:31;;;;;;;91.85;43.02;;;;;;;0.79;70.97;100787.97;2217354;80;28889;-62
2020/12/02 12:15:41;;;;;;;96.35;46.50;;;;;;;0.79;70.38;100776.95;2186775;80;31173;-63
2020/12/02 12:18:52;;;;;;;98.20;49.23;;;;;;;0.75;70.49;100762.02;2178209;80;34039;-64
2020/12/02 12:22:35;;;;;;;102.10;48.40;;;;;;;0.78;70.80;100755.87;2185305;80;28710;-64
2020/12/02 12:25:37;;;;;;;106.43;51.80;;;;;;;0.81;70.94;100751.46;2177425;80;27617;-63
2020/12/02 12:28:40;;;;;;;104.12;47.93;;;;;;;0.85;70.90;100746.63;2191424;80;28813;-63
2020/12/02 12:32:08;;;;;;;109.27;52.58;;;;;;;0.84;70.61;100743.55;2166055;80;31014;-63
2020/12/02 12:35:27;;;;;;;105.92;50.40;;;;;;;0.87;70.84;100742.66;2187065;80;33089;-63
2020/12/02 12:38:56;;;;;;;97.55;49.85;;;;;;;0.90;70.86;100735.63;2186992;80;28993;-62
2020/12/02 12:41:58;;;;;;;111.92;52.85;;;;;;;0.94;70.68;100728.58;2186126;80;27661;-64
2020/12/02 12:45:03;;;;;;;114.92;56.73;;;;;;;0.93;70.57;100728.56;2185377;80;28587;-64
2020/12/02 12:48:06;;;;;;;111.57;52.00;;;;;;;0.93;70.51;100736.05;2183526;80;30977;-64
2020/12/02 12:51:11;;;;;;;113.52;54.03;;;;;;;0.94;70.39;100725.05;2184156;80;33114;-62
2020/12/02 12:54:18;;;;;;;118.20;55.35;;;;;;;0.97;70.42;100716.70;2129868;80;29580;-63
2020/12/02 12:57:26;;;;;;;115.10;54.75;;;;;;;0.98;70.33;100717.57;2217669;80;27673;-65
2020/12/02 13:00:30;;;;;;;118.80;55.70;;;;;;;0.98;70.42;100710.97;2216746;80;28811;-63
2020/12/02 13:03:33;;;;;;;116.28;55.12;;;;;;;1.02;70.60;100700.39;2158344;80;31157;-62
2020/12/02 13:06:55;;;;;;;123.00;54.50;;;;;;;1.08;70.42;100694.67;2164470;80;32976;-64
2020/12/02 13:10:36;;;;;;;109.50;54.55;;;;;;;1.06;70.18;100696.01;2161096;80;28853;-65
2020/12/02 13:14:06;;;;;;;114.80;52.13;;;;;;;1.09;70.19;100697.75;2186254;80;27887;-63
2020/12/02 13:17:16;;;;;;;111.40;55.15;;;;;;;1.10;70.02;100684.99;2182773;80;28623;-64
2020/12/02 13:20:53;;;;;;;99.92;48.92;;;;;;;1.10;69.91;100688.95;2216844;80;31134;-63
2020/12/02 13:24:22;;;;;;;102.12;49.88;;;;;;;1.11;69.63;100682.79;2186194;80;33128;-64
2020/12/02 13:27:45;;;;;;;99.70;46.05;;;;;;;1.09;69.55;100679.28;2186225;80;28603;-63
2020/12/02 13:30:55;;;;;;;92.97;45.08;;;;;;;1.09;69.43;100676.64;2185952;80;27800;-66
2020/12/02 13:33:58;;;;;;;89.15;41.20;;;;;;;1.10;69.29;100682.36;2135829;81;28817;-66
2020/12/02 13:37:01;;;;;;;89.05;39.27;;;;;;;1.07;68.79;100681.94;2125512;81;31356;-63
2020/12/02 13:40:05;;;;;;;82.57;39.33;;;;;;;1.05;68.51;100674.47;2178079;81;33155;-71
2020/12/02 13:43:25;;;;;;;90.57;41.33;;;;;;;1.03;68.24;100678.41;2148396;81;28546;-70
2020/12/02 13:46:28;;;;;;;91.05;43.30;;;;;;;1.01;68.24;100678.86;2184634;80;27622;-74
2020/12/02 13:49:31;;;;;;;83.97;39.80;;;;;;;1.01;68.60;100679.31;2148603;81;28799;-65
2020/12/02 13:52:36;;;;;;;82.12;39.95;;;;;;;1.01;68.31;100678.86;2124337;81;32250;-73
2020/12/02 13:55:44;;;;;;;94.62;44.67;;;;;;;0.99;67.71;100682.39;2136233;80;32929;-70
2020/12/02 13:59:04;;;;;;;94.85;42.25;;;;;;;0.97;68.01;100677.14;2201020;80;30359;-67
2020/12/02 14:02:17;;;;;;;94.22;46.20;;;;;;;0.95;68.21;100671.41;2133828;81;27775;-74
2020/12/02 14:05:50;;;;;;;97.97;47.50;;;;;;;1.01;68.11;100679.31;2232739;78;27957;-68
2020/12/02 14:08:53;;;;;;;98.80;46.05;;;;;;;0.92;68.18;100676.27;2190627;79;27756;-67
2020/12/02 14:12:00;;;;;;;99.52;47.00;;;;;;;0.89;67.73;100675.84;2149729;79;28849;-69
2020/12/02 14:15:04;;;;;;;107.22;48.83;;;;;;;0.86;67.65;100682.88;2165809;79;31149;-70
2020/12/02 14:18:07;;;;;;;117.43;52.87;;;;;;;0.80;67.60;100681.59;2181205;79;33111;-68